Time;durP1;ratioP1;P1;durP2;ratioP2;P2;SDS_P1;SDS_P2;PMS_P1;PMS_P2;Temp;Humidity;BMP_temperature;BMP_pressure;BME280_temperature;BME280_humidity;BME280_pressure;Samples;Min_cycle;Max_cycle;Signal;HPM_P1;HPM_P2
2023/05/18 00:01:52;;;;;;;8.07;4.35;;;12.20;91.00;;;;;;5035347;28;20026;-75
2023/05/18 00:04:22;;;;;;;10.57;4.25;;;12.20;90.90;;;;;;5029294;28;20113;-75
2023/05/18 00:06:55;;;;;;;7.97;4.20;;;12.20;91.10;;;;;;5030086;28;20031;-75
2023/05/18 00:09:23;;;;;;;11.15;5.15;;;12.10;91.10;;;;;;5032464;28;20470;-74
2023/05/18 00:11:49;;;;;;;9.15;4.68;;;12.20;90.30;;;;;;5029105;28;20022;-74
2023/05/18 00:14:15;;;;;;;12.27;4.30;;;12.20;91.20;;;;;;5032116;28;20041;-75
2023/05/18 00:16:41;;;;;;;14.83;4.07;;;12.10;91.80;;;;;;5036053;28;20498;-75
2023/05/18 00:19:06;;;;;;;10.47;4.13;;;12.00;92.50;;;;;;5033831;28;20048;-75
2023/05/18 00:21:32;;;;;;;14.37;5.77;;;12.10;91.60;;;;;;5029307;28;20036;-75
2023/05/18 00:23:58;;;;;;;9.33;3.87;;;12.10;91.30;;;;;;5027394;28;20428;-74
2023/05/18 00:26:23;;;;;;;8.07;4.17;;;12.00;91.40;;;;;;5031739;28;20048;-75
2023/05/18 00:28:49;;;;;;;8.37;4.30;;;12.00;91.90;;;;;;5031685;28;20508;-74
2023/05/18 00:31:15;;;;;;;9.53;3.97;;;12.00;91.20;;;;;;5034659;28;20104;-75
2023/05/18 00:33:40;;;;;;;7.35;3.75;;;12.00;91.20;;;;;;5039137;28;20038;-75
2023/05/18 00:36:06;;;;;;;8.03;3.93;;;12.00;92.00;;;;;;5032434;28;20493;-75
2023/05/18 00:38:32;;;;;;;11.90;4.40;;;12.00;91.80;;;;;;5034520;28;20103;-76
2023/05/18 00:40:57;;;;;;;9.83;3.73;;;12.00;92.00;;;;;;5030779;28;20029;-75
2023/05/18 00:43:23;;;;;;;11.70;5.10;;;11.90;92.20;;;;;;5032572;28;20083;-76
2023/05/18 00:45:48;;;;;;;10.33;4.17;;;11.90;92.30;;;;;;5031410;28;20499;-75
2023/05/18 00:48:14;;;;;;;7.83;4.13;;;11.80;91.90;;;;;;5030332;28;20064;-75
2023/05/18 00:50:40;;;;;;;7.60;4.30;;;11.90;92.00;;;;;;5031257;28;20056;-76
2023/05/18 00:53:05;;;;;;;9.63;4.55;;;11.90;91.80;;;;;;5045032;28;20552;-76
2023/05/18 00:55:31;;;;;;;6.60;3.97;;;11.80;91.50;;;;;;5030875;28;20061;-73
2023/05/18 00:58:01;;;;;;;10.63;4.97;;;11.90;92.00;;;;;;5031557;28;20025;-75
2023/05/18 01:00:27;;;;;;;11.57;4.38;;;11.80;91.60;;;;;;5026939;28;20116;-76
2023/05/18 01:02:53;;;;;;;9.30;4.15;;;11.80;91.80;;;;;;5029569;28;20087;-75
2023/05/18 01:05:20;;;;;;;14.80;5.10;;;11.80;91.80;;;;;;5030284;28;20041;-75
2023/05/18 01:07:47;;;;;;;8.30;3.90;;;11.70;92.20;;;;;;5037652;28;20112;-75
2023/05/18 01:10:14;;;;;;;;;;;11.70;91.70;;;;;;5029282;28;20030;-75
2023/05/18 01:12:52;;;;;;;10.55;4.63;;;11.70;92.30;;;;;;5034803;28;19978;-76
2023/05/18 01:15:22;;;;;;;8.30;4.00;;;11.60;92.60;;;;;;5034791;28;20042;-76
2023/05/18 01:18:21;;;;;;;15.82;5.30;;;11.60;92.30;;;;;;5026169;28;20041;-76
2023/05/18 01:21:03;;;;;;;8.07;4.07;;;11.60;92.30;;;;;;5028648;28;20059;-75
2023/05/18 01:24:02;;;;;;;5.55;3.95;;;11.60;92.90;;;;;;5034464;28;20029;-76
2023/05/18 01:26:36;;;;;;;6.43;3.80;;;11.50;93.00;;;;;;5028184;28;20065;-74
2023/05/18 01:29:07;;;;;;;8.95;4.10;;;11.50;92.90;;;;;;5033261;28;20052;-75
2023/05/18 01:31:33;;;;;;;11.85;4.32;;;11.50;93.30;;;;;;5030117;28;20084;-75
2023/05/18 01:33:59;;;;;;;7.20;4.33;;;11.50;93.00;;;;;;5031965;28;20033;-74
2023/05/18 01:36:25;;;;;;;13.37;4.53;;;11.40;93.00;;;;;;5029415;28;20387;-75
2023/05/18 01:38:51;;;;;;;11.10;5.93;;;11.40;92.90;;;;;;5033265;28;20144;-74
2023/05/18 01:41:25;;;;;;;;;;;11.40;93.00;;;;;;5047565;28;20023;-74
2023/05/18 01:43:50;;;;;;;10.68;4.30;;;11.30;93.50;;;;;;5039491;28;19917;-74
2023/05/18 01:46:33;;;;;;;8.17;4.40;;;11.30;93.80;;;;;;5034514;28;20029;-74
2023/05/18 01:49:05;;;;;;;9.55;4.85;;;11.30;93.50;;;;;;5031002;28;20387;-75
2023/05/18 01:51:35;;;;;;;12.60;4.60;;;11.20;94.00;;;;;;5027972;28;20033;-75
2023/05/18 01:54:06;;;;;;;9.20;4.43;;;11.20;94.10;;;;;;5062892;28;20532;-76
2023/05/18 01:56:33;;;;;;;14.85;4.55;;;11.20;94.10;;;;;;5031954;28;20108;-75
2023/05/18 01:59:00;;;;;;;12.30;4.90;;;11.20;93.70;;;;;;5044185;28;20041;-75
2023/05/18 02:01:25;;;;;;;11.18;4.53;;;11.20;94.40;;;;;;5031131;28;20132;-73
2023/05/18 02:03:51;;;;;;;7.17;4.00;;;11.10;94.30;;;;;;5032005;28;20104;-74
2023/05/18 02:06:16;;;;;;;9.17;4.80;;;11.10;94.60;;;;;;5033327;28;20036;-74
2023/05/18 02:08:42;;;;;;;11.87;4.57;;;11.10;94.30;;;;;;5027154;28;20040;-74
2023/05/18 02:11:08;;;;;;;11.77;5.40;;;11.00;94.60;;;;;;5033624;28;20068;-74
2023/05/18 02:13:34;;;;;;;9.00;4.77;;;11.10;94.60;;;;;;5034208;28;20561;-75
2023/05/18 02:15:59;;;;;;;10.13;4.70;;;11.00;94.30;;;;;;5029310;28;20300;-75
2023/05/18 02:18:25;;;;;;;9.93;4.65;;;11.00;94.70;;;;;;5033209;28;20054;-75
2023/05/18 02:20:58;;;;;;;15.43;4.33;;;11.00;94.60;;;;;;5028860;28;20516;-75
2023/05/18 02:23:24;;;;;;;7.60;4.47;;;11.00;94.70;;;;;;5030348;28;20272;-75
2023/05/18 02:25:50;;;;;;;7.32;4.22;;;11.00;94.60;;;;;;5032502;28;20189;-74
2023/05/18 02:28:16;;;;;;;8.15;4.30;;;11.00;94.70;;;;;;5029613;28;20112;-75
2023/05/18 02:30:42;;;;;;;13.57;4.93;;;10.90;94.60;;;;;;5032898;28;20456;-75
2023/05/18 02:33:07;;;;;;;10.02;4.70;;;10.80;95.20;;;;;;5017568;28;20036;-74
2023/05/18 02:35:34;;;;;;;13.65;5.03;;;10.80;94.70;;;;;;5027474;28;20083;-75
2023/05/18 02:38:01;;;;;;;11.07;4.60;;;10.80;95.10;;;;;;5031743;28;20041;-75
2023/05/18 02:40:26;;;;;;;;;;;10.70;95.30;;;;;;5030329;28;20037;-74
2023/05/18 02:42:52;;;;;;;8.95;4.45;;;10.70;95.30;;;;;;5030851;28;19909;-74
2023/05/18 02:45:19;;;;;;;9.30;4.87;;;10.70;95.50;;;;;;5030247;28;20124;-75
2023/05/18 02:47:45;;;;;;;11.45;5.15;;;10.70;95.80;;;;;;5025598;28;20038;-75
2023/05/18 02:50:11;;;;;;;6.95;4.47;;;10.70;95.10;;;;;;5029772;28;20521;-75
2023/05/18 02:52:37;;;;;;;10.35;4.68;;;10.70;95.70;;;;;;5027226;28;20041;-75
2023/05/18 02:55:04;;;;;;;12.73;4.70;;;10.70;95.50;;;;;;5029995;28;20083;-75
2023/05/18 02:57:31;;;;;;;7.40;4.18;;;10.70;95.60;;;;;;5028850;28;20028;-75
2023/05/18 02:59:57;;;;;;;8.73;4.15;;;10.70;96.10;;;;;;5032070;28;20045;-75
2023/05/18 03:02:23;;;;;;;8.45;4.38;;;10.60;95.60;;;;;;5046347;28;20032;-75
2023/05/18 03:04:53;;;;;;;11.63;6.30;;;10.60;96.00;;;;;;5028663;28;20037;-74
2023/05/18 03:07:22;;;;;;;8.38;4.53;;;10.60;96.60;;;;;;5028170;28;20030;-74
2023/05/18 03:09:47;;;;;;;12.25;4.78;;;10.60;96.60;;;;;;5032767;28;20524;-75
2023/05/18 03:12:13;;;;;;;12.67;5.00;;;10.60;96.80;;;;;;5031191;28;20112;-75
2023/05/18 03:14:38;;;;;;;13.10;4.37;;;10.60;95.70;;;;;;5024709;28;20049;-75
2023/05/18 03:17:04;;;;;;;14.90;5.13;;;10.60;96.60;;;;;;5032470;28;20099;-76
2023/05/18 03:19:33;;;;;;;10.48;5.90;;;10.60;96.10;;;;;;5029351;28;20512;-75
2023/05/18 03:21:59;;;;;;;14.60;8.25;;;10.60;96.50;;;;;;5028744;28;20077;-76
2023/05/18 03:24:29;;;;;;;17.00;7.20;;;10.50;96.30;;;;;;5034933;28;20072;-76
2023/05/18 03:26:55;;;;;;;10.30;6.30;;;10.60;96.00;;;;;;5055922;28;20056;-74
2023/05/18 03:29:22;;;;;;;12.75;6.20;;;10.60;96.30;;;;;;5041790;28;20026;-75
2023/05/18 03:31:48;;;;;;;11.05;6.05;;;10.60;96.30;;;;;;5031828;28;20040;-76
2023/05/18 03:34:14;;;;;;;10.20;6.00;;;10.50;95.70;;;;;;5030076;28;20041;-76
2023/05/18 03:36:41;;;;;;;9.35;4.72;;;10.50;96.20;;;;;;5032700;28;20037;-75
2023/05/18 03:39:07;;;;;;;6.68;4.68;;;10.50;96.90;;;;;;5028495;28;20480;-75
2023/05/18 03:41:32;;;;;;;16.02;4.93;;;10.50;96.50;;;;;;5063706;28;20029;-75
2023/05/18 03:43:58;;;;;;;11.37;4.67;;;10.50;96.80;;;;;;5028205;28;20103;-75
2023/05/18 03:46:24;;;;;;;16.30;5.60;;;10.50;96.40;;;;;;5032308;28;20494;-76
2023/05/18 03:48:50;;;;;;;12.90;5.27;;;10.50;96.40;;;;;;5027946;28;20033;-76
2023/05/18 03:51:16;;;;;;;11.68;4.80;;;10.50;95.90;;;;;;5028588;28;20064;-75
2023/05/18 03:53:41;;;;;;;13.82;5.55;;;10.40;96.30;;;;;;5031983;28;20072;-76
2023/05/18 03:56:07;;;;;;;9.63;5.20;;;10.40;96.40;;;;;;5047980;28;20462;-75
2023/05/18 03:58:33;;;;;;;12.05;5.88;;;10.40;96.50;;;;;;5040358;28;20049;-76
2023/05/18 04:01:00;;;;;;;9.88;5.47;;;10.50;96.00;;;;;;5035481;28;20586;-74
2023/05/18 04:03:26;;;;;;;9.48;5.50;;;10.50;96.50;;;;;;5030892;28;20540;-76
2023/05/18 04:05:52;;;;;;;8.63;4.80;;;10.50;96.50;;;;;;5032426;28;20029;-76
2023/05/18 04:08:19;;;;;;;12.15;5.80;;;10.50;96.50;;;;;;5028946;28;20029;-76
2023/05/18 04:10:44;;;;;;;11.20;4.50;;;10.40;96.40;;;;;;5032595;28;20021;-76
2023/05/18 04:13:10;;;;;;;10.13;4.85;;;10.40;96.80;;;;;;5032756;28;20072;-75
2023/05/18 04:15:36;;;;;;;15.00;4.68;;;10.40;96.90;;;;;;5030347;28;20049;-77
2023/05/18 04:18:04;;;;;;;15.50;5.18;;;10.40;96.50;;;;;;5034247;28;20035;-77
2023/05/18 04:20:29;;;;;;;9.82;4.30;;;10.40;96.50;;;;;;5027528;28;20602;-76
2023/05/18 04:22:58;;;;;;;9.53;4.43;;;10.30;96.70;;;;;;5039319;28;20033;-75
2023/05/18 04:25:28;;;;;;;13.52;4.47;;;10.40;97.30;;;;;;5030317;28;20022;-75
2023/05/18 04:27:54;;;;;;;7.30;4.60;;;10.40;96.90;;;;;;5033945;28;20061;-76
2023/05/18 04:30:23;;;;;;;;;;;10.40;97.40;;;;;;5056666;28;20026;-75
2023/05/18 04:32:49;;;;;;;10.60;4.53;;;10.40;97.20;;;;;;5026438;28;19909;-75
2023/05/18 04:35:15;;;;;;;11.27;4.97;;;10.30;97.30;;;;;;5033584;28;20082;-77
2023/05/18 04:37:41;;;;;;;12.68;5.70;;;10.30;97.40;;;;;;5035561;28;20041;-75
2023/05/18 04:40:15;;;;;;;10.75;5.07;;;10.30;97.30;;;;;;5033078;28;20099;-76
2023/05/18 04:42:44;;;;;;;11.18;5.40;;;10.40;97.30;;;;;;5035806;28;20080;-75
2023/05/18 04:45:19;;;;;;;9.75;4.80;;;10.40;97.40;;;;;;5035674;28;20033;-76
2023/05/18 04:47:46;;;;;;;7.95;4.70;;;10.40;97.10;;;;;;5027214;28;20038;-75
2023/05/18 04:50:24;;;;;;;10.00;5.10;;;10.40;97.60;;;;;;5030377;28;20041;-76
2023/05/18 04:52:50;;;;;;;12.60;5.30;;;10.40;97.20;;;;;;5025479;28;20481;-76
2023/05/18 04:55:21;;;;;;;;;;;10.40;97.60;;;;;;5042741;28;20427;-76
2023/05/18 04:57:52;;;;;;;11.40;4.93;;;10.40;97.60;;;;;;5031382;28;19920;-76
2023/05/18 05:00:19;;;;;;;11.35;4.57;;;10.40;97.70;;;;;;5022095;28;20046;-76
2023/05/18 05:02:45;;;;;;;7.57;4.65;;;10.40;97.90;;;;;;5031376;28;20378;-76
2023/05/18 05:05:10;;;;;;;15.10;5.80;;;10.40;97.50;;;;;;5028867;28;20087;-76
2023/05/18 05:07:36;;;;;;;16.40;5.20;;;10.50;97.60;;;;;;5030782;28;20030;-76
2023/05/18 05:10:02;;;;;;;13.07;5.00;;;10.50;97.90;;;;;;5029881;28;20030;-76
2023/05/18 05:12:28;;;;;;;13.60;5.22;;;10.50;98.00;;;;;;5044467;28;20037;-75
2023/05/18 05:14:58;;;;;;;9.83;5.17;;;10.50;97.80;;;;;;5047530;28;20041;-75
2023/05/18 05:17:25;;;;;;;11.65;5.22;;;10.60;97.70;;;;;;5042414;28;20025;-76
2023/05/18 05:19:51;;;;;;;8.35;4.85;;;10.70;98.20;;;;;;5043154;28;20040;-76
2023/05/18 05:22:19;;;;;;;12.47;5.90;;;10.70;98.00;;;;;;5039589;28;20029;-75
2023/05/18 05:24:45;;;;;;;10.75;5.30;;;10.60;98.10;;;;;;5050435;28;20360;-75
2023/05/18 05:27:12;;;;;;;9.13;4.88;;;10.70;98.10;;;;;;5035274;28;20033;-75
2023/05/18 05:29:37;;;;;;;9.23;5.15;;;10.70;98.40;;;;;;5027120;28;20037;-76
2023/05/18 05:32:04;;;;;;;13.93;5.00;;;10.80;97.20;;;;;;5025311;28;20038;-75
2023/05/18 05:34:29;;;;;;;10.02;5.15;;;10.70;97.60;;;;;;5066240;28;20045;-75
2023/05/18 05:36:55;;;;;;;12.67;5.23;;;10.70;98.50;;;;;;5026463;28;20034;-77
2023/05/18 05:39:21;;;;;;;13.93;5.30;;;10.70;97.80;;;;;;5030279;28;20811;-75
2023/05/18 05:41:46;;;;;;;11.87;5.73;;;10.80;97.30;;;;;;5051512;28;20099;-75
2023/05/18 05:44:12;;;;;;;10.67;5.03;;;10.80;97.90;;;;;;5032233;28;20055;-75
2023/05/18 05:46:37;;;;;;;12.83;5.53;;;10.80;98.50;;;;;;5036718;28;20061;-76
2023/05/18 05:49:04;;;;;;;8.23;5.27;;;10.80;98.10;;;;;;5027188;28;20076;-76
2023/05/18 05:51:29;;;;;;;15.77;5.30;;;10.80;97.80;;;;;;5028587;28;20037;-77
2023/05/18 05:53:55;;;;;;;17.37;6.50;;;10.80;97.20;;;;;;5026535;28;20044;-78
2023/05/18 05:56:21;;;;;;;15.17;6.13;;;10.90;98.10;;;;;;5023993;28;20053;-77
2023/05/18 05:58:47;;;;;;;8.23;4.72;;;10.90;97.20;;;;;;5026918;28;20065;-77
2023/05/18 06:01:13;;;;;;;9.50;4.87;;;10.90;98.60;;;;;;5029086;28;20069;-76
2023/05/18 06:03:38;;;;;;;10.68;4.68;;;10.90;97.80;;;;;;5032597;28;20030;-77
2023/05/18 06:06:04;;;;;;;10.60;5.47;;;11.00;96.80;;;;;;5032518;28;20155;-77
2023/05/18 06:08:30;;;;;;;10.63;6.10;;;11.00;97.70;;;;;;5028032;28;20029;-77
2023/05/18 06:10:56;;;;;;;10.30;5.00;;;11.10;97.90;;;;;;5033712;28;20035;-77
2023/05/18 06:13:21;;;;;;;9.63;5.30;;;11.10;97.20;;;;;;5029746;28;20028;-76
2023/05/18 06:15:47;;;;;;;12.50;4.87;;;11.00;97.00;;;;;;5030620;28;20072;-74
2023/05/18 06:18:12;;;;;;;7.90;5.07;;;11.00;97.40;;;;;;5035067;28;20512;-78
2023/05/18 06:20:38;;;;;;;16.93;5.50;;;11.00;97.50;;;;;;5025506;28;20034;-75
2023/05/18 06:23:04;;;;;;;9.13;6.13;;;11.20;97.20;;;;;;5030573;28;20036;-74
2023/05/18 06:25:30;;;;;;;10.55;4.60;;;11.30;96.80;;;;;;5028755;28;20037;-76
2023/05/18 06:27:55;;;;;;;17.10;5.70;;;11.40;97.10;;;;;;5023310;28;20842;-75
2023/05/18 06:30:21;;;;;;;14.17;6.40;;;11.50;97.20;;;;;;5025778;28;20132;-74
2023/05/18 06:32:47;;;;;;;11.60;5.70;;;11.60;97.00;;;;;;5027153;28;20448;-75
2023/05/18 06:35:12;;;;;;;12.73;4.97;;;11.60;96.40;;;;;;5028744;28;20045;-75
2023/05/18 06:37:38;;;;;;;11.03;5.20;;;11.60;96.60;;;;;;5035629;28;20133;-75
2023/05/18 06:40:06;;;;;;;9.82;5.97;;;11.60;96.10;;;;;;5034179;28;20046;-75
2023/05/18 06:42:32;;;;;;;10.32;5.75;;;11.80;97.10;;;;;;5030381;28;20116;-74
2023/05/18 06:44:58;;;;;;;15.05;6.63;;;11.80;96.90;;;;;;5029533;28;20033;-74
2023/05/18 06:47:23;;;;;;;13.53;5.13;;;11.80;96.60;;;;;;5027224;28;20029;-75
2023/05/18 06:49:49;;;;;;;18.00;5.77;;;11.80;96.50;;;;;;5030030;28;20319;-73
2023/05/18 06:52:15;;;;;;;10.30;5.33;;;11.80;96.60;;;;;;5036777;28;20508;-74
2023/05/18 06:54:40;;;;;;;9.75;5.60;;;11.80;96.90;;;;;;5033461;28;20029;-74
2023/05/18 06:57:06;;;;;;;12.97;5.47;;;11.90;96.50;;;;;;5042957;28;20544;-81
2023/05/18 06:59:33;;;;;;;11.23;5.90;;;11.90;96.40;;;;;;5042138;28;20073;-77
2023/05/18 07:01:59;;;;;;;12.00;6.00;;;11.90;96.80;;;;;;5081453;28;20029;-75
2023/05/18 07:04:25;;;;;;;11.32;5.82;;;11.90;96.40;;;;;;5045244;28;20033;-76
2023/05/18 07:06:52;;;;;;;13.47;6.13;;;11.80;96.60;;;;;;5037075;28;20400;-76
2023/05/18 07:09:18;;;;;;;12.10;6.18;;;11.80;96.70;;;;;;5027624;28;20040;-73
2023/05/18 07:11:44;;;;;;;12.47;5.67;;;11.80;96.20;;;;;;5028790;28;20060;-78
2023/05/18 07:14:09;;;;;;;9.65;5.85;;;11.80;96.80;;;;;;5033339;28;20524;-79
2023/05/18 07:16:35;;;;;;;11.53;6.03;;;11.80;96.70;;;;;;5026639;28;20104;-77
2023/05/18 07:19:02;;;;;;;14.75;6.70;;;11.80;96.60;;;;;;5025996;28;20401;-77
2023/05/18 07:21:30;;;;;;;15.73;6.35;;;11.90;97.70;;;;;;5030289;28;20041;-77
2023/05/18 07:23:55;;;;;;;19.25;6.32;;;11.90;95.80;;;;;;5044162;28;20510;-77
2023/05/18 07:26:21;;;;;;;13.77;6.27;;;11.90;96.00;;;;;;5046531;28;20072;-75
2023/05/18 07:28:47;;;;;;;17.33;6.50;;;11.90;96.10;;;;;;5027328;28;20033;-77
2023/05/18 07:31:15;;;;;;;12.27;6.05;;;12.00;96.00;;;;;;5030687;28;20095;-74
2023/05/18 07:33:41;;;;;;;13.07;5.25;;;12.00;95.10;;;;;;5029611;28;20033;-77
2023/05/18 07:36:07;;;;;;;10.13;6.00;;;12.00;96.30;;;;;;5031175;28;20044;-78
2023/05/18 07:38:32;;;;;;;10.07;6.13;;;12.10;96.20;;;;;;5033380;28;20668;-76
2023/05/18 07:40:59;;;;;;;15.60;6.07;;;12.20;96.40;;;;;;5030472;28;20855;-77
2023/05/18 07:43:24;;;;;;;10.45;5.43;;;12.30;95.80;;;;;;5027379;28;20070;-77
2023/05/18 07:45:50;;;;;;;12.05;5.68;;;12.30;96.00;;;;;;5029944;28;20451;-77
2023/05/18 07:48:16;;;;;;;19.70;7.60;;;12.40;95.90;;;;;;5026331;28;20034;-77
2023/05/18 07:50:43;;;;;;;13.97;6.80;;;12.60;96.60;;;;;;5029415;28;20034;-76
2023/05/18 15:48:30;;;;;;;12.55;5.40;;;17.90;76.60;;;;;;5116826;27;20398;-71
2023/05/18 15:50:55;;;;;;;24.43;6.23;;;17.80;79.90;;;;;;5105081;28;20100;-70
2023/05/18 15:53:21;;;;;;;9.67;4.43;;;17.90;79.40;;;;;;5104669;28;20031;-72
2023/05/18 15:55:49;;;;;;;17.33;5.07;;;18.20;78.30;;;;;;5104868;28;20053;-69
2023/05/18 15:58:15;;;;;;;9.40;4.38;;;18.30;78.10;;;;;;5104793;28;20448;-71
2023/05/18 16:00:41;;;;;;;31.52;6.13;;;18.50;77.90;;;;;;5104571;28;20485;-71
2023/05/18 16:03:07;;;;;;;18.52;4.97;;;18.60;77.30;;;;;;5099125;28;20421;-73
2023/05/18 16:05:32;;;;;;;14.40;4.75;;;18.40;77.30;;;;;;5104998;28;20495;-71
2023/05/18 16:07:58;;;;;;;16.00;5.07;;;18.40;77.10;;;;;;5104246;28;20048;-72
2023/05/18 16:10:24;;;;;;;10.50;4.57;;;18.40;77.20;;;;;;5103561;28;20092;-70
2023/05/18 16:12:50;;;;;;;10.23;4.22;;;18.40;77.50;;;;;;5112017;28;21220;-70
2023/05/18 16:15:17;;;;;;;11.77;4.30;;;18.40;77.50;;;;;;5107183;28;20032;-79
2023/05/18 16:17:43;;;;;;;7.43;4.28;;;18.40;76.00;;;;;;5103561;28;20070;-71
2023/05/18 17:45:01;;;;;;;14.68;4.60;;;16.50;88.90;;;;;;5082918;27;21136;-71
2023/05/18 17:47:27;;;;;;;8.43;4.60;;;16.50;88.90;;;;;;5075919;28;20021;-72
2023/05/18 17:49:53;;;;;;;17.40;4.93;;;16.60;87.70;;;;;;5071564;28;20047;-73
2023/05/18 17:52:18;;;;;;;9.87;4.40;;;16.60;88.20;;;;;;5073854;28;20028;-74
2023/05/18 17:54:44;;;;;;;9.77;4.43;;;16.60;87.90;;;;;;5077177;28;20438;-74
2023/05/18 17:57:10;;;;;;;8.80;4.90;;;16.60;86.60;;;;;;5067504;28;20032;-74
2023/05/18 17:59:36;;;;;;;10.52;5.07;;;16.50;88.10;;;;;;5075282;28;20021;-72
2023/05/18 18:02:01;;;;;;;8.93;4.90;;;16.50;86.70;;;;;;5070165;28;20032;-70
2023/05/18 18:04:27;;;;;;;12.60;5.07;;;16.60;87.90;;;;;;5073911;28;20043;-71
2023/05/18 18:06:53;;;;;;;8.27;4.93;;;16.50;87.90;;;;;;5079005;28;20051;-69
2023/05/18 18:09:19;;;;;;;9.52;4.90;;;16.50;89.30;;;;;;5073335;28;20025;-73
2023/05/18 18:11:44;;;;;;;7.63;4.60;;;16.40;87.50;;;;;;5071810;28;20037;-70
2023/05/18 18:14:15;;;;;;;9.67;5.43;;;16.40;87.90;;;;;;5076289;28;20040;-70
2023/05/18 18:16:40;;;;;;;10.90;5.13;;;16.40;88.10;;;;;;5079300;28;20115;-73
2023/05/18 18:19:07;;;;;;;8.83;4.77;;;16.50;88.80;;;;;;5071292;28;20128;-71
2023/05/18 18:21:32;;;;;;;8.82;4.88;;;16.50;88.50;;;;;;5080253;28;20278;-70
2023/05/18 18:24:00;;;;;;;8.83;5.10;;;16.40;88.80;;;;;;5073538;28;20048;-69
2023/05/18 18:26:25;;;;;;;10.35;5.35;;;16.40;88.40;;;;;;5073419;28;20058;-69
2023/05/18 18:28:51;;;;;;;10.33;5.77;;;16.40;88.20;;;;;;5071388;28;20036;-70
2023/05/18 18:31:19;;;;;;;11.27;5.70;;;16.40;88.40;;;;;;5070567;28;20515;-72
2023/05/18 18:33:48;;;;;;;10.82;6.13;;;16.40;88.70;;;;;;5069432;28;20526;-70
2023/05/18 18:36:14;;;;;;;17.88;5.25;;;16.40;89.40;;;;;;5070339;28;20017;-69
2023/05/18 18:38:40;;;;;;;11.73;5.40;;;16.40;90.30;;;;;;5077134;28;20036;-68
2023/05/18 18:41:05;;;;;;;13.03;5.40;;;16.40;89.30;;;;;;5067528;28;20029;-69
2023/05/18 18:43:31;;;;;;;12.23;6.50;;;16.40;89.60;;;;;;5073152;28;20036;-71
2023/05/18 18:45:57;;;;;;;13.37;7.07;;;16.30;90.10;;;;;;5070611;28;20481;-70
2023/05/18 18:48:24;;;;;;;16.85;6.88;;;16.20;89.50;;;;;;5071972;28;20032;-70
2023/05/18 18:50:49;;;;;;;;;;;16.20;90.60;;;;;;5074553;28;20031;-67
2023/05/18 18:53:15;;;;;;;9.07;6.05;;;16.20;90.30;;;;;;5079398;28;19912;-72
2023/05/18 18:55:40;;;;;;;10.77;6.70;;;16.20;89.70;;;;;;5075259;28;20089;-70
2023/05/18 18:58:07;;;;;;;12.90;7.03;;;16.10;90.00;;;;;;5069952;28;20040;-67
2023/05/18 19:00:32;;;;;;;10.70;7.35;;;16.10;90.20;;;;;;5061583;28;20052;-68
2023/05/18 19:02:58;;;;;;;15.17;6.30;;;16.10;90.20;;;;;;5065574;28;20173;-70
2023/05/18 19:05:23;;;;;;;8.63;5.55;;;16.20;90.20;;;;;;5062049;28;20039;-72
2023/05/18 19:07:53;;;;;;;9.60;5.43;;;16.20;90.50;;;;;;5064968;28;20443;-69
2023/05/18 19:10:19;;;;;;;11.93;6.35;;;16.20;90.60;;;;;;5061663;28;20020;-72
2023/05/18 19:12:45;;;;;;;22.33;6.50;;;16.10;90.40;;;;;;5058647;28;20098;-71
2023/05/18 19:15:12;;;;;;;13.53;6.27;;;16.10;90.10;;;;;;5059753;28;20097;-72
2023/05/18 19:17:41;;;;;;;10.15;5.85;;;16.10;91.30;;;;;;5057977;28;20024;-71
2023/05/18 19:20:07;;;;;;;17.23;6.05;;;16.10;90.50;;;;;;5058840;28;20049;-70
2023/05/18 19:22:34;;;;;;;13.35;5.90;;;16.10;91.20;;;;;;5061867;28;20024;-71
2023/05/18 19:24:59;;;;;;;10.73;6.40;;;16.00;92.50;;;;;;5060980;28;20041;-69
2023/05/18 19:27:25;;;;;;;12.67;5.67;;;16.00;91.00;;;;;;5060384;28;20382;-70
2023/05/18 19:29:50;;;;;;;13.40;5.03;;;16.00;92.00;;;;;;5064465;28;20064;-70
2023/05/18 19:32:16;;;;;;;11.53;5.30;;;16.00;91.90;;;;;;5065503;28;20028;-68
2023/05/18 19:34:42;;;;;;;10.13;4.90;;;16.00;91.20;;;;;;5059361;28;20033;-68
2023/05/18 19:37:07;;;;;;;14.90;5.00;;;15.90;93.70;;;;;;5056540;28;20031;-69
2023/05/18 19:39:33;;;;;;;11.17;5.40;;;15.80;93.40;;;;;;5057426;28;20054;-69
2023/05/18 19:41:59;;;;;;;10.97;5.30;;;15.80;92.80;;;;;;5061532;28;20040;-69
2023/05/18 19:44:25;;;;;;;14.27;6.32;;;15.80;92.80;;;;;;5055073;28;20124;-71
2023/05/18 19:46:51;;;;;;;11.60;5.28;;;15.90;92.10;;;;;;5063353;28;20123;-68
2023/05/18 19:49:16;;;;;;;8.10;4.47;;;15.80;93.00;;;;;;5056605;28;20029;-71
2023/05/18 19:51:42;;;;;;;9.73;5.87;;;15.70;94.00;;;;;;5054588;28;20025;-70
2023/05/18 19:54:08;;;;;;;13.00;5.87;;;15.60;94.60;;;;;;5060350;28;20800;-70
2023/05/18 19:56:35;;;;;;;16.20;5.57;;;15.60;93.20;;;;;;5062982;28;20044;-69
2023/05/18 19:59:00;;;;;;;10.48;5.05;;;15.60;93.00;;;;;;5056513;28;20032;-69
2023/05/18 20:01:26;;;;;;;8.90;5.53;;;15.60;93.10;;;;;;5055656;28;20037;-72
2023/05/18 20:03:52;;;;;;;7.27;5.60;;;15.60;92.80;;;;;;5055175;28;20052;-71
2023/05/18 20:06:18;;;;;;;14.27;5.50;;;15.60;93.20;;;;;;5057707;28;20021;-72
2023/05/18 20:08:44;;;;;;;12.43;5.80;;;15.60;93.00;;;;;;5057840;28;20043;-71
2023/05/18 20:11:10;;;;;;;9.77;5.70;;;15.50;93.30;;;;;;5055855;28;20107;-71
2023/05/18 20:13:36;;;;;;;14.30;5.80;;;15.60;92.80;;;;;;5059969;28;20564;-72
2023/05/18 20:16:02;;;;;;;9.13;5.23;;;15.50;93.20;;;;;;5059059;28;20115;-69
2023/05/18 20:18:30;;;;;;;11.95;5.20;;;15.40;94.20;;;;;;5057951;28;20020;-71
2023/05/18 20:20:56;;;;;;;7.43;4.88;;;15.30;94.20;;;;;;5061342;28;20033;-68
2023/05/18 20:23:22;;;;;;;8.60;5.55;;;15.30;93.90;;;;;;5057245;28;20135;-68
2023/05/18 20:25:47;;;;;;;16.63;5.57;;;15.30;94.50;;;;;;5057556;28;20112;-70
2023/05/18 20:28:14;;;;;;;9.87;5.00;;;15.20;95.00;;;;;;5065638;28;20029;-69
2023/05/18 20:30:40;;;;;;;11.43;5.45;;;15.20;96.30;;;;;;5056305;28;20476;-67
2023/05/18 20:33:06;;;;;;;9.85;5.53;;;15.20;96.20;;;;;;5057739;28;20021;-69
2023/05/18 20:35:32;;;;;;;10.27;5.70;;;15.10;94.90;;;;;;5059318;28;20120;-67
2023/05/18 20:37:59;;;;;;;13.95;6.28;;;15.20;95.20;;;;;;5058470;28;20048;-67
2023/05/18 20:40:26;;;;;;;11.23;6.53;;;15.10;95.00;;;;;;5052429;28;20112;-69
2023/05/18 20:42:53;;;;;;;15.13;6.40;;;15.00;96.20;;;;;;5057962;28;20115;-68
2023/05/18 20:45:21;;;;;;;10.27;5.80;;;15.00;96.70;;;;;;5065464;28;20088;-68
2023/05/18 20:47:52;;;;;;;10.15;6.43;;;15.10;97.60;;;;;;5058778;28;20025;-69
2023/05/18 20:50:20;;;;;;;11.45;6.18;;;14.90;96.10;;;;;;5059737;28;20036;-67
2023/05/18 20:52:46;;;;;;;10.32;5.90;;;14.90;95.90;;;;;;5054790;28;20036;-67
2023/05/18 20:55:13;;;;;;;11.13;6.22;;;14.90;96.40;;;;;;5054240;28;20068;-69
2023/05/18 20:57:42;;;;;;;10.13;7.28;;;14.90;97.70;;;;;;5059208;28;20488;-71
2023/05/18 21:00:09;;;;;;;13.23;7.22;;;14.90;96.50;;;;;;5058696;28;20111;-68
2023/05/18 21:02:35;;;;;;;9.95;6.10;;;14.90;98.10;;;;;;5053753;28;20071;-69
2023/05/18 21:05:03;;;;;;;12.18;7.35;;;14.80;98.80;;;;;;5055917;28;20595;-71
2023/05/18 21:07:30;;;;;;;16.40;7.22;;;14.80;97.70;;;;;;5057188;28;20732;-69
2023/05/18 21:09:56;;;;;;;16.17;7.28;;;14.80;98.10;;;;;;5055954;28;20069;-71
2023/05/18 21:12:22;;;;;;;18.33;7.68;;;14.70;98.20;;;;;;5065370;28;20028;-68
2023/05/18 21:14:48;;;;;;;14.73;7.57;;;14.70;98.50;;;;;;5062391;28;20029;-70
2023/05/18 21:17:14;;;;;;;12.53;7.53;;;14.60;99.20;;;;;;5056790;28;20063;-69
2023/05/18 21:19:40;;;;;;;10.70;6.20;;;14.60;99.20;;;;;;5060617;28;20033;-70
2023/05/18 21:22:06;;;;;;;17.00;6.82;;;14.70;99.00;;;;;;5064648;28;20032;-69
2023/05/18 21:24:31;;;;;;;10.98;6.10;;;14.70;96.70;;;;;;5062064;28;20488;-72
2023/05/18 21:26:58;;;;;;;17.33;6.20;;;14.70;97.30;;;;;;5061626;28;20052;-69
2023/05/18 21:29:23;;;;;;;13.30;6.80;;;14.80;96.70;;;;;;5063679;28;20029;-72
2023/05/18 21:31:49;;;;;;;12.40;6.53;;;14.80;96.00;;;;;;5063815;28;20036;-73
2023/05/18 21:34:16;;;;;;;10.63;6.37;;;14.70;95.90;;;;;;5060672;28;20500;-70
2023/05/18 21:36:42;;;;;;;10.20;6.13;;;14.70;95.80;;;;;;5095987;28;20171;-69
2023/05/18 21:39:08;;;;;;;12.20;6.47;;;14.50;96.10;;;;;;5063978;28;20509;-68
2023/05/18 21:41:37;;;;;;;13.90;6.68;;;14.50;97.60;;;;;;5061143;28;20294;-68
2023/05/18 21:44:04;;;;;;;10.27;6.47;;;14.50;98.70;;;;;;5062340;28;20041;-68
2023/05/18 21:46:29;;;;;;;12.50;6.28;;;14.40;98.20;;;;;;5061064;28;20021;-68
2023/05/18 21:48:55;;;;;;;10.40;6.30;;;14.40;99.50;;;;;;5061596;28;20441;-70
2023/05/18 21:51:21;;;;;;;11.17;6.23;;;14.30;99.50;;;;;;5065374;28;20561;-73
2023/05/18 21:53:47;;;;;;;8.55;5.85;;;14.40;99.90;;;;;;5065613;28;20035;-72
2023/05/18 21:56:12;;;;;;;12.53;6.97;;;14.30;99.90;;;;;;5062020;28;20033;-71
2023/05/18 21:58:38;;;;;;;11.57;6.90;;;14.20;99.90;;;;;;5056474;28;20110;-69